createdAt,value
2019-02-15T00:08:47.266Z,147.90
2019-02-15T00:38:48.618Z,76.90
2019-02-15T01:09:01.009Z,102.87
2019-02-15T01:39:19.181Z,107.43
2019-02-15T02:09:21.186Z,71.00
2019-02-15T02:39:22.615Z,42.30
2019-02-15T03:09:23.956Z,59.63
2019-02-15T03:39:27.216Z,85.03
2019-02-15T04:09:28.534Z,30.70
2019-02-15T04:39:30.000Z,71.93
2019-02-15T05:09:31.289Z,109.10
2019-02-15T05:39:32.637Z,67.50
2019-02-15T06:09:33.973Z,40.70
2019-02-15T06:39:35.302Z,144.90
2019-02-15T07:09:36.632Z,120.50
2019-02-15T07:31:32.851Z,117.97
2019-02-15T07:41:34.360Z,126.70
2019-02-15T07:51:35.799Z,124.77
2019-02-15T08:01:37.298Z,103.77
2019-02-15T08:11:38.762Z,118.97
2019-02-15T08:21:40.202Z,103.50
2019-02-15T08:31:41.676Z,116.27
2019-02-15T08:42:00.704Z,110.17
2019-02-15T08:51:47.632Z,112.37
2019-02-15T09:01:51.000Z,108.33
2019-02-15T09:11:52.489Z,116.13
2019-02-15T09:21:53.948Z,124.63
2019-02-15T09:31:55.435Z,108.60
2019-02-15T09:41:56.966Z,80.00
2019-02-15T09:51:58.428Z,80.30
2019-02-15T10:02:00.023Z,66.57
2019-02-15T10:12:01.521Z,53.50
2019-02-15T10:22:03.047Z,55.05
2019-02-15T10:32:04.486Z,52.43
2019-02-15T10:42:06.300Z,43.02
2019-02-15T10:52:07.819Z,37.53
2019-02-15T11:02:09.273Z,38.17
2019-02-15T11:12:10.718Z,23.67
2019-02-15T11:22:12.235Z,21.27
2019-02-15T11:32:13.696Z,24.82
2019-02-15T11:42:15.183Z,20.05
2019-02-15T11:52:16.699Z,12.25
2019-02-15T12:02:18.159Z,13.18
2019-02-15T12:12:19.608Z,10.08
2019-02-15T12:22:21.062Z,9.70
2019-02-15T12:32:22.544Z,8.70
2019-02-15T12:42:24.000Z,6.97
2019-02-15T12:52:25.574Z,4.62
2019-02-15T13:02:27.092Z,6.25
2019-02-15T13:12:28.576Z,4.90
2019-02-15T13:22:30.136Z,7.53
2019-02-15T13:32:31.632Z,6.12
2019-02-15T13:42:33.223Z,6.55
2019-02-15T13:52:34.684Z,9.95
2019-02-15T14:02:36.204Z,5.80
2019-02-15T14:12:38.202Z,15.90
2019-02-15T14:22:39.708Z,8.33
2019-02-15T14:32:41.232Z,3.95
2019-02-15T14:42:42.728Z,19.60
2019-02-15T14:52:44.239Z,46.50
2019-02-15T15:02:45.692Z,6.83
2019-02-15T15:12:47.188Z,7.30
2019-02-15T15:22:48.656Z,8.40
2019-02-15T15:32:50.131Z,12.27
2019-02-15T15:42:51.577Z,17.20
2019-02-15T15:52:53.125Z,19.67
2019-02-15T16:02:54.596Z,26.67
2019-02-15T16:12:58.074Z,31.87
2019-02-15T16:22:59.567Z,50.80
2019-02-15T16:33:00.993Z,57.50
2019-02-15T16:43:02.564Z,54.83
2019-02-15T16:53:04.098Z,84.23
2019-02-15T17:03:05.676Z,149.57
2019-02-15T17:13:07.133Z,130.43
2019-02-15T17:23:08.608Z,62.87
2019-02-15T17:33:10.064Z,42.50
2019-02-15T17:43:11.608Z,46.40
2019-02-15T17:53:13.128Z,48.23
2019-02-15T18:03:14.631Z,58.90
2019-02-15T18:13:16.191Z,59.10
2019-02-15T18:23:17.687Z,49.50
2019-02-15T18:33:19.197Z,65.93
2019-02-15T18:43:20.756Z,59.73
2019-02-15T18:53:22.249Z,71.27
2019-02-15T19:03:24.031Z,116.60
2019-02-15T19:13:25.564Z,91.20
2019-02-15T19:23:27.035Z,206.07
2019-02-15T19:33:28.583Z,121.10
2019-02-15T19:43:30.047Z,113.23
2019-02-15T19:53:31.526Z,136.40
2019-02-15T20:03:33.227Z,173.07
2019-02-15T20:13:34.682Z,201.40
2019-02-15T20:23:36.220Z,148.43
2019-02-15T20:33:37.700Z,197.50
2019-02-15T20:43:39.199Z,202.53
2019-02-15T20:53:40.694Z,198.20
2019-02-15T21:03:43.508Z,102.70
2019-02-15T21:13:45.052Z,136.60
2019-02-15T21:23:46.550Z,167.33
2019-02-15T21:33:48.075Z,141.00
2019-02-15T21:43:49.514Z,82.00
2019-02-15T21:53:51.017Z,78.10
2019-02-15T22:03:52.525Z,119.20
2019-02-15T22:13:53.998Z,88.80
2019-02-15T22:23:55.456Z,67.27
2019-02-15T22:33:56.976Z,63.13
2019-02-15T22:43:58.441Z,130.47
2019-02-15T22:53:59.907Z,97.07
2019-02-15T23:04:01.354Z,90.70
2019-02-15T23:14:02.919Z,82.53
2019-02-15T23:24:04.526Z,92.43
2019-02-15T23:34:05.952Z,59.80
2019-02-15T23:44:07.552Z,70.40
2019-02-15T23:54:09.168Z,51.93
